hero-logo

Top 15 Knowers of AMP Ameriprise Financial Inc - 2017-07-26

Rank Fund Result (K)
1 Bridgeway Capital Management Inc $7,549
2 Darrell King Llc $5,159
3 Cornerstone Capital Management Holdings Llc $3,646
4 Lyrical Asset Management Lp $1,845
5 Bogle Investment Management L P De $1,381
6 Rothschild Asset Management Inc $1,033
7 Jacobs Levy Equity Management Inc $343
8 Silvercrest Asset Management Group Llc $305
9 Public Employees Retirement System Of Ohio $279
10 Northwestern Mutual Investment Management Company Llc $243
11 Envestnet Asset Management Inc $236
12 Interval Partners Lp $223
13 Boston Private Wealth Llc $205
14 Ellington Management Group Llc $161
15 Seven Eight Capital Lp $134
Price Chart and News From Google Finance for AMP Ameriprise Financial Inc
Owner Date Shares Change Price Change Result (K)
Acrospire Investment Management Llc 2017-03-31 -400 $18.74 $-7
Advantage Investment Management Llc 2017-03-31 0 $18.74 $0
Ahl Partners Llp 2017-03-31 -1,622 $18.74 $-30
Amalgamated Bank 2017-03-31 -1,303 $18.74 $-24
Amf Pensionsforsakring Ab 2017-03-31 -4,483 $18.74 $-84
Ancora Advisors Llc 2017-03-31 0 $18.74 $0
Aperio Group Llc 2017-03-31 -5,281 $18.74 $-98
Arrow Financial Corp 2017-03-31 0 $18.74 $0
A R T Advisors Llc 2017-03-31 -62,600 $18.74 $-1,173
Assetmark Inc 2017-03-31 1 $18.74 $0
Aua Capital Management Llc 2017-03-31 0 $18.74 $0
Aureus Asset Management Llc 2017-03-31 1,908 $18.74 $35
Auxier Asset Management 2017-03-31 0 $18.74 $0
Balentine Llc 2017-03-31 0 $18.74 $0
Blair William Co Il 2017-03-31 3,005 $18.74 $56
Bogle Investment Management L P De 2017-03-31 73,719 $18.74 $1,381
Bokf Na 2017-03-31 3,119 $18.74 $58
Boston Private Wealth Llc 2017-03-31 10,964 $18.74 $205
Bragg Financial Advisors Inc 2017-03-31 995 $18.74 $18
Bridgeway Capital Management Inc 2017-03-31 402,874 $18.74 $7,549
Brinker Capital Inc 2017-03-31 48 $18.74 $0
Brown Brothers Harriman Co 2017-03-31 -250 $18.74 $-4
California State Teachers Retirement System 2017-03-31 -35,400 $18.74 $-663
Cambria Investment Management L P 2017-03-31 150 $18.74 $2
Canandaigua National Bank Trust Co 2017-03-31 1,559 $18.74 $29
Capital Guardian Trust Co 2017-03-31 0 $18.74 $0
Chilton Investment Co Llc 2017-03-31 0 $18.74 $0
Colony Group Llc 2017-03-31 1,967 $18.74 $36
Compagnie Lombard Odier Scma 2017-03-31 0 $18.74 $0
Cornerstone Capital Management Holdings Llc 2017-03-31 194,564 $18.74 $3,646
D A Davidson Co 2017-03-31 -145 $18.74 $-2
Dana Investment Advisors Inc 2017-03-31 -88,457 $18.74 $-1,657
Darrell King Llc 2017-03-31 275,343 $18.74 $5,159
Eagle Global Advisors Llc 2017-03-31 1,665 $18.74 $31
Earnest Partners Llc 2017-03-31 -78 $18.74 $-1
Edmond De Rothschild Holding S A 2017-03-31 141 $18.74 $2
Efg Asset Management Americas Corp 2017-03-31 -6,159 $18.74 $-115
Elkhorn Investments Llc 2017-03-31 -7,235 $18.74 $-135
Ellington Management Group Llc 2017-03-31 8,600 $18.74 $161
Endeavour Capital Advisors Inc 2017-03-31 -98,742 $18.74 $-1,850
Envestnet Asset Management Inc 2017-03-31 12,605 $18.74 $236
Estabrook Capital Management 2017-03-31 100 $18.74 $1
Fdo Partners Llc 2017-03-31 -3,543 $18.74 $-66
Fdx Advisors Inc 2017-03-31 -3,251 $18.74 $-60
Fiera Capital Corp 2017-03-31 2,804 $18.74 $52
First Republic Investment Management Inc 2017-03-31 6,938 $18.74 $130
Focused Wealth Management Inc 2017-03-31 1,300 $18.74 $24
Fortis Advisors Llc 2017-03-31 0 $18.74 $0
Glg Llc 2017-03-31 -23 $18.74 $0
Gsa Capital Partners Llp 2017-03-31 -11,589 $18.74 $-217
Guggenheim Capital Llc 2017-03-31 -13,615 $18.74 $-255
Guinness Asset Management Ltd 2017-03-31 -400 $18.74 $-7
Hbk Sorce Advisory Llc 2017-03-31 -162 $18.74 $-3
Highbridge Capital Management Llc 2017-03-31 -592 $18.74 $-11
Horizon Kinetics Llc 2017-03-31 0 $18.74 $0
Ifp Advisors Inc 2017-03-31 -584 $18.74 $-10
Iht Wealth Management Llc 2017-03-31 0 $18.74 $0
Interval Partners Lp 2017-03-31 11,911 $18.74 $223
Invictus Rg 2017-03-31 2,741 $18.74 $51
Itau Unibanco Holding S A 2017-03-31 300 $18.74 $5
Jacobs Levy Equity Management Inc 2017-03-31 18,343 $18.74 $343
Jane Street Group Llc 2017-03-31 -1,353 $18.74 $-25
Johnson Investment Counsel Inc 2017-03-31 96 $18.74 $1
Kentucky Retirement Systems 2017-03-31 -1,592 $18.74 $-29
Kentucky Retirement Systems Insurance Trust Fund 2017-03-31 -951 $18.74 $-17
Krilogy Financial Llc 2017-03-31 0 $18.74 $0
Ladenburg Thalmann Financial Services Inc 2017-03-31 2,737 $18.74 $51
Laffer Investments 2017-03-31 0 $18.74 $0
Loomis Sayles Co L P 2017-03-31 -10,452 $18.74 $-195
Lowe Brockenbrough Co Inc 2017-03-31 -1,587 $18.74 $-29
Lyrical Asset Management Lp 2017-03-31 98,471 $18.74 $1,845
Marco Investment Management Llc 2017-03-31 -20 $18.74 $0
Mariner Wealth Advisors Llc 2017-03-31 1,827 $18.74 $34
Mason Street Advisors Llc 2017-03-31 -331 $18.74 $-6
Mckinley Capital Management Llc Delaware 2017-03-31 960 $18.74 $17
Meadow Creek Investment Management Llc 2017-03-31 800 $18.74 $14
Montecito Bank Trust 2017-03-31 -2,113 $18.74 $-39
Moore Capital Management Lp 2017-03-31 -75,000 $18.74 $-1,405
National Asset Management Inc 2017-03-31 46 $18.74 $0
Neuburgh Advisers Llc 2017-03-31 1,100 $18.74 $20
New York Life Trust Co 2017-03-31 70 $18.74 $1
Northwestern Mutual Investment Management Company Llc 2017-03-31 12,992 $18.74 $243
Northwestern Mutual Wealth Management Co 2017-03-31 -1,313 $18.74 $-24
Paloma Partners Management Co 2017-03-31 -72,907 $18.74 $-1,366
Perigon Wealth Management Llc 2017-03-31 -125 $18.74 $-2
Philosmith Capital Corp 2017-03-31 -57,700 $18.74 $-1,081
Piedmont Investment Advisors Llc 2017-03-31 -1,332 $18.74 $-24
Proficio Capital Partners Llc 2017-03-31 228 $18.74 $4
Public Employees Retirement System Of Ohio 2017-03-31 14,903 $18.74 $279
Qcm Cayman Ltd 2017-03-31 3,005 $18.74 $56
Raymond James Associates 2017-03-31 -1,089 $18.74 $-20
Redwood Investments Llc 2017-03-31 0 $18.74 $0
Richard Bernstein Advisors Llc 2017-03-31 0 $18.74 $0
Riverhead Capital Management Llc 2017-03-31 1,301 $18.74 $24
Rothschild Asset Management Inc 2017-03-31 55,146 $18.74 $1,033
Samlyn Capital Llc 2017-03-31 -118,015 $18.74 $-2,211
Scotia Capital Inc 2017-03-31 53 $18.74 $0
Seawolf Capital Llc 2017-03-31 -12,800 $18.74 $-239
Seven Eight Capital Lp 2017-03-31 7,200 $18.74 $134
Silvercrest Asset Management Group Llc 2017-03-31 16,320 $18.74 $305
Sowell Financial Services Llc 2017-03-31 -74 $18.74 $-1
Squarepoint Ops Llc 2017-03-31 -11,946 $18.74 $-223
Srs Capital Advisors Inc 2017-03-31 0 $18.74 $0
Sterling Capital Management Llc 2017-03-31 5,898 $18.74 $110
Stifel Financial Corp 2017-03-31 -1,772 $18.74 $-33
Teachers Insurance Annuity Association Of America 2017-03-31 0 $18.74 $0
Tortoise Investment Management Llc 2017-03-31 0 $18.74 $0
Tyers Asset Management Llc 2017-03-31 1,400 $18.74 $26
United Capital Financial Advisers Llc 2017-03-31 115 $18.74 $2
Veritable L P 2017-03-31 -28 $18.74 $0
Verition Fund Management Llc 2017-03-31 -6,150 $18.74 $-115
Voloridge Investment Management Llc 2017-03-31 -53,824 $18.74 $-1,008
Walleye Trading Llc 2017-03-31 -4,236 $18.74 $-79
Wall Street Access Asset Management Llc 2017-03-31 -3,389 $18.74 $-63
Wayne Hummer Investments L L C 2017-03-31 4,235 $18.74 $79
Wbi Investments Inc 2017-03-31 -50,583 $18.74 $-947
Webster Bank N A 2017-03-31 675 $18.74 $12
Westside Investment Management Inc 2017-03-31 0 $18.74 $0
Wexford Capital Lp 2017-03-31 -10,398 $18.74 $-194
Yorkbridge Wealth Partners Llc 2017-03-31 100 $18.74 $1